Time;durP1;ratioP1;P1;durP2;ratioP2;P2;SDS_P1;SDS_P2;PMS_P1;PMS_P2;Temp;Humidity;BMP_temperature;BMP_pressure;BME280_temperature;BME280_humidity;BME280_pressure;Samples;Min_cycle;Max_cycle;Signal;HPM_P1;HPM_P2
2023/09/08 00:03:04;;;;;;;9.55;5.28;;;15.00;99.90;;;;;;7309662;32;20191;-55
2023/09/08 00:07:06;;;;;;;8.90;5.75;;;15.00;99.90;;;;;;7302511;32;20124;-55
2023/09/08 00:11:08;;;;;;;9.57;5.22;;;14.90;99.90;;;;;;7309516;32;20365;-55
2023/09/08 00:15:10;;;;;;;8.00;5.00;;;14.90;99.90;;;;;;7304628;32;20763;-55
2023/09/08 00:19:12;;;;;;;8.38;5.53;;;14.90;99.90;;;;;;7307278;32;20216;-55
2023/09/08 00:23:14;;;;;;;9.27;4.75;;;14.90;99.90;;;;;;7286742;32;20225;-54
2023/09/08 00:27:16;;;;;;;7.07;5.00;;;14.90;99.90;;;;;;7302615;32;20116;-55
2023/09/08 00:31:17;;;;;;;10.20;4.87;;;14.80;99.90;;;;;;7305650;32;20112;-55
2023/09/08 00:35:19;;;;;;;9.05;4.75;;;14.70;99.90;;;;;;7301911;32;20225;-54
2023/09/08 00:39:21;;;;;;;9.35;5.00;;;14.70;99.90;;;;;;7308448;32;20250;-55
2023/09/08 00:43:23;;;;;;;9.30;4.53;;;14.60;99.90;;;;;;7319215;32;20123;-56
2023/09/08 00:47:25;;;;;;;8.77;5.10;;;14.60;99.90;;;;;;7306210;32;20115;-56
2023/09/08 00:51:27;;;;;;;11.60;5.53;;;14.60;99.90;;;;;;7315710;32;20154;-57
2023/09/08 00:55:30;;;;;;;8.65;5.50;;;14.50;99.90;;;;;;7289344;32;20248;-57
2023/09/08 00:59:33;;;;;;;7.07;5.32;;;14.50;99.90;;;;;;7310974;32;20150;-54
2023/09/08 01:03:35;;;;;;;11.43;4.78;;;14.50;99.90;;;;;;7307840;32;20266;-55
2023/09/08 01:07:37;;;;;;;11.10;5.25;;;14.50;99.90;;;;;;7299164;32;20485;-55
2023/09/08 01:11:39;;;;;;;11.88;5.60;;;14.40;99.90;;;;;;7314014;32;20176;-55
2023/09/08 01:15:41;;;;;;;9.10;4.87;;;14.40;99.90;;;;;;7307866;32;20111;-55
2023/09/08 01:19:44;;;;;;;9.73;6.22;;;14.30;99.90;;;;;;7306861;32;20223;-56
2023/09/08 01:23:55;;;;;;;8.02;5.53;;;14.20;99.90;;;;;;7302089;32;20099;-60
2023/09/08 01:28:00;;;;;;;7.80;5.35;;;14.20;99.90;;;;;;7302971;32;20122;-56
2023/09/08 01:32:04;;;;;;;7.75;5.50;;;14.20;99.90;;;;;;7298175;32;20434;-55
2023/09/08 01:36:06;;;;;;;8.63;5.70;;;14.10;99.90;;;;;;7301268;32;20525;-56
2023/09/08 01:40:09;;;;;;;8.10;5.32;;;14.10;99.90;;;;;;7301107;32;20297;-56
2023/09/08 01:44:11;;;;;;;9.68;5.72;;;14.10;99.90;;;;;;7306412;32;20103;-55
2023/09/08 01:48:13;;;;;;;8.40;5.57;;;14.10;99.90;;;;;;7300155;32;20107;-57
2023/09/08 01:52:15;;;;;;;8.80;5.40;;;14.00;99.90;;;;;;7300175;32;20279;-55
2023/09/08 01:56:16;;;;;;;12.07;5.62;;;14.00;99.90;;;;;;7307117;32;20100;-56
2023/09/08 02:00:18;;;;;;;12.20;5.80;;;14.00;99.90;;;;;;7298996;32;20100;-55
2023/09/08 02:04:20;;;;;;;6.90;5.10;;;13.90;99.90;;;;;;7306613;32;20775;-55
2023/09/08 02:08:22;;;;;;;7.45;5.32;;;13.90;99.90;;;;;;7298953;32;20136;-55
2023/09/08 02:12:23;;;;;;;8.18;5.05;;;13.80;99.90;;;;;;7298351;32;20100;-55
2023/09/08 02:16:25;;;;;;;8.20;5.47;;;13.90;99.90;;;;;;7297180;32;20243;-55
2023/09/08 02:20:27;;;;;;;8.60;5.40;;;13.90;99.90;;;;;;7307834;32;20238;-55
2023/09/08 02:24:29;;;;;;;8.27;5.68;;;13.80;99.90;;;;;;7298851;32;20160;-54
2023/09/08 02:28:30;;;;;;;8.50;5.60;;;13.80;99.90;;;;;;7299748;32;20112;-55
2023/09/08 02:32:32;;;;;;;11.30;5.55;;;13.70;99.90;;;;;;7294806;32;20536;-55
2023/09/08 02:36:34;;;;;;;10.73;6.50;;;13.70;99.90;;;;;;7283147;32;20210;-55
2023/09/08 02:40:36;;;;;;;9.30;5.60;;;13.80;99.90;;;;;;7299249;32;20219;-55
2023/09/08 02:44:38;;;;;;;13.32;5.10;;;13.70;99.90;;;;;;7309654;32;20125;-56
2023/09/08 02:48:40;;;;;;;7.60;5.32;;;13.70;99.90;;;;;;7302582;32;20129;-56
2023/09/08 02:52:42;;;;;;;7.35;4.87;;;13.70;99.90;;;;;;7300344;32;20150;-56
2023/09/08 02:56:44;;;;;;;9.05;5.53;;;13.60;99.90;;;;;;7302838;32;20111;-55
2023/09/08 03:00:46;;;;;;;6.68;5.20;;;13.60;99.90;;;;;;7303672;32;20230;-55
2023/09/08 03:04:47;;;;;;;8.35;5.25;;;13.50;99.90;;;;;;7300100;32;20621;-56
2023/09/08 03:08:49;;;;;;;12.10;5.12;;;13.60;99.90;;;;;;7300345;32;20193;-56
2023/09/08 03:12:51;;;;;;;8.43;4.62;;;13.60;99.90;;;;;;7304590;32;20208;-55
2023/09/08 03:16:53;;;;;;;7.45;4.80;;;13.50;99.90;;;;;;7298447;32;20109;-56
2023/09/08 03:20:54;;;;;;;9.35;5.50;;;13.50;99.90;;;;;;7301043;32;20120;-56
2023/09/08 03:24:56;;;;;;;6.55;4.75;;;13.40;99.90;;;;;;7301471;32;20250;-55
2023/09/08 03:28:58;;;;;;;9.45;5.28;;;13.40;99.90;;;;;;7312519;32;20478;-56
2023/09/08 03:33:00;;;;;;;15.20;6.03;;;13.40;99.90;;;;;;7299074;32;20466;-56
2023/09/08 03:37:01;;;;;;;9.30;5.62;;;13.30;99.90;;;;;;7303887;32;20100;-55
2023/09/08 03:41:03;;;;;;;8.88;5.03;;;13.30;99.90;;;;;;7303990;32;20194;-56
2023/09/08 03:45:05;;;;;;;10.15;5.68;;;13.30;99.90;;;;;;7299828;32;20469;-55
2023/09/08 03:49:08;;;;;;;8.38;6.00;;;13.30;99.90;;;;;;7302986;32;20518;-56
2023/09/08 03:53:10;;;;;;;6.95;5.40;;;13.30;99.90;;;;;;7309100;32;20126;-55
2023/09/08 03:57:12;;;;;;;8.38;5.20;;;13.30;99.90;;;;;;7304796;32;20100;-56
2023/09/08 04:01:14;;;;;;;7.62;5.10;;;13.30;99.90;;;;;;7305930;32;20509;-56
2023/09/08 04:05:17;;;;;;;10.60;5.72;;;13.30;99.90;;;;;;7306240;32;20187;-57
2023/09/08 04:09:19;;;;;;;8.98;5.90;;;13.30;99.90;;;;;;7305031;32;20104;-56
2023/09/08 04:13:20;;;;;;;7.35;5.45;;;13.20;99.90;;;;;;7303315;32;20711;-56
2023/09/08 04:17:22;;;;;;;11.85;5.10;;;13.20;99.90;;;;;;7299946;32;20542;-56
2023/09/08 04:21:24;;;;;;;10.13;5.93;;;13.20;99.90;;;;;;7303772;32;20124;-58
2023/09/08 04:25:26;;;;;;;9.00;5.37;;;13.20;99.90;;;;;;7304662;32;20205;-56
2023/09/08 04:29:27;;;;;;;9.23;5.62;;;13.20;99.90;;;;;;7303938;32;20481;-56
2023/09/08 04:33:30;;;;;;;7.03;5.43;;;13.10;99.90;;;;;;7304289;32;20506;-58
2023/09/08 04:37:32;;;;;;;8.13;4.95;;;13.10;99.90;;;;;;7297478;32;20165;-56
2023/09/08 04:41:33;;;;;;;10.38;6.00;;;13.10;99.90;;;;;;7297477;32;20528;-57
2023/09/08 04:45:35;;;;;;;8.98;5.30;;;13.10;99.90;;;;;;7291051;32;20780;-56
2023/09/08 04:49:37;;;;;;;7.75;5.57;;;13.10;99.90;;;;;;7304431;32;20187;-56
2023/09/08 04:53:39;;;;;;;12.50;7.40;;;13.10;99.90;;;;;;7302125;32;20206;-56
2023/09/08 04:57:40;;;;;;;13.85;7.53;;;13.10;99.90;;;;;;7305885;32;20238;-56
2023/09/08 05:01:43;;;;;;;9.52;6.05;;;13.10;99.90;;;;;;7304551;32;20096;-57
2023/09/08 05:05:45;;;;;;;18.05;6.57;;;13.10;99.90;;;;;;7305690;32;20126;-56
2023/09/08 05:09:47;;;;;;;54.28;12.00;;;13.10;99.90;;;;;;7311452;32;20258;-58
2023/09/08 05:13:48;;;;;;;29.48;9.88;;;13.10;99.90;;;;;;7290390;32;21032;-57
2023/09/08 05:17:50;;;;;;;14.70;7.57;;;13.20;99.90;;;;;;7304787;32;20150;-56
2023/09/08 05:21:54;;;;;;;13.43;5.82;;;13.20;99.90;;;;;;7292873;32;20191;-57
2023/09/08 05:25:56;;;;;;;8.75;5.00;;;13.20;99.90;;;;;;7289158;32;20092;-58
2023/09/08 05:29:58;;;;;;;8.48;5.90;;;13.20;99.90;;;;;;7297463;32;20159;-56
2023/09/08 05:34:00;;;;;;;8.25;5.90;;;13.20;99.90;;;;;;7305382;32;20108;-57
2023/09/08 05:38:02;;;;;;;8.38;5.68;;;13.30;99.90;;;;;;7300882;32;20127;-57
2023/09/08 05:42:04;;;;;;;9.75;5.90;;;13.30;99.90;;;;;;7311070;32;20562;-57
2023/09/08 05:46:06;;;;;;;6.90;5.37;;;13.30;99.90;;;;;;7309792;32;20187;-58
2023/09/08 05:50:08;;;;;;;7.43;6.07;;;13.40;99.90;;;;;;7292858;32;20270;-57
2023/09/08 05:54:10;;;;;;;9.40;5.28;;;13.50;99.90;;;;;;7297445;32;20261;-56
2023/09/08 05:58:12;;;;;;;7.43;6.03;;;13.50;99.90;;;;;;7289396;32;20096;-56
2023/09/08 06:02:14;;;;;;;10.70;6.07;;;13.60;99.90;;;;;;7300509;32;20163;-57
2023/09/08 06:06:15;;;;;;;10.35;5.93;;;13.60;99.90;;;;;;7295937;32;20128;-56
2023/09/08 06:10:17;;;;;;;8.13;6.12;;;13.70;99.90;;;;;;7302814;32;20873;-56
2023/09/08 06:14:19;;;;;;;12.52;6.15;;;13.80;99.90;;;;;;7288248;32;20191;-56
2023/09/08 06:18:21;;;;;;;8.60;6.35;;;13.90;99.90;;;;;;7307237;32;20122;-55
2023/09/08 06:22:22;;;;;;;9.40;6.03;;;14.10;99.90;;;;;;7286967;32;20171;-56
2023/09/08 06:26:24;;;;;;;8.65;6.45;;;14.20;99.90;;;;;;7300767;32;20528;-56
2023/09/08 06:30:26;;;;;;;9.02;5.72;;;14.20;99.90;;;;;;7301909;32;20510;-57
2023/09/08 06:34:28;;;;;;;8.30;5.85;;;14.40;99.90;;;;;;7296120;32;20610;-56
2023/09/08 06:38:31;;;;;;;7.30;5.55;;;14.60;99.90;;;;;;7295413;32;20219;-58
2023/09/08 06:42:33;;;;;;;8.98;5.50;;;14.80;99.90;;;;;;7300138;32;20842;-57
2023/09/08 06:46:35;;;;;;;8.57;6.10;;;14.90;99.90;;;;;;7297505;32;20093;-57
2023/09/08 06:50:39;;;;;;;9.48;6.10;;;15.10;99.90;;;;;;7298540;32;20096;-56
2023/09/08 06:54:41;;;;;;;9.18;6.40;;;15.20;99.90;;;;;;7302860;32;20149;-56
2023/09/08 06:58:43;;;;;;;10.85;6.72;;;15.50;99.90;;;;;;7280654;32;20261;-56
2023/09/08 07:02:45;;;;;;;8.80;6.22;;;15.70;99.90;;;;;;7291940;32;20229;-56
2023/09/08 07:06:47;;;;;;;9.00;6.10;;;15.90;99.90;;;;;;7300814;32;20104;-56
2023/09/08 07:10:52;;;;;;;9.27;6.37;;;16.10;99.90;;;;;;7297139;32;20553;-57
2023/09/08 07:14:54;;;;;;;6.15;5.45;;;16.30;99.90;;;;;;7299438;32;20120;-56
2023/09/08 07:18:56;;;;;;;11.70;5.60;;;16.50;99.90;;;;;;7293952;32;20527;-56
2023/09/08 07:22:58;;;;;;;6.53;5.07;;;16.60;99.90;;;;;;7298578;32;20214;-56
2023/09/08 07:27:00;;;;;;;6.22;4.72;;;16.90;99.90;;;;;;7299613;32;20114;-56
2023/09/08 07:31:03;;;;;;;6.90;4.87;;;17.20;99.90;;;;;;7295985;32;20304;-55
2023/09/08 07:35:13;;;;;;;7.75;4.55;;;17.50;99.90;;;;;;7298149;32;20215;-57
2023/09/08 07:39:15;;;;;;;6.57;4.72;;;17.70;99.90;;;;;;7299381;32;20301;-57
2023/09/08 07:43:17;;;;;;;8.10;4.60;;;18.10;99.90;;;;;;7297323;32;20886;-56
2023/09/08 07:47:19;;;;;;;7.50;4.57;;;18.40;99.90;;;;;;7299782;32;20563;-55
2023/09/08 07:51:21;;;;;;;8.57;4.20;;;18.70;99.90;;;;;;7300201;32;20508;-56
2023/09/08 07:55:26;;;;;;;5.97;4.00;;;18.90;99.90;;;;;;7300447;32;20100;-56
2023/09/08 07:59:28;;;;;;;7.53;4.18;;;19.10;99.90;;;;;;7314764;32;20187;-55
2023/09/08 08:03:30;;;;;;;7.00;4.10;;;19.30;99.90;;;;;;7313924;32;20108;-57
2023/09/08 08:07:32;;;;;;;6.45;3.83;;;19.60;99.90;;;;;;7311146;32;20126;-57
2023/09/08 08:11:34;;;;;;;5.70;3.75;;;19.90;99.90;;;;;;7304260;32;20456;-56
2023/09/08 08:15:42;;;;;;;5.28;3.78;;;20.20;99.90;;;;;;7305114;32;20477;-56
2023/09/08 08:19:43;;;;;;;6.50;3.78;;;20.30;99.90;;;;;;7306773;32;20118;-56
2023/09/08 08:23:45;;;;;;;7.65;4.25;;;20.50;99.90;;;;;;7312673;32;20127;-56
2023/09/08 08:27:47;;;;;;;8.32;4.03;;;20.70;99.90;;;;;;7308820;32;20154;-56
2023/09/08 08:31:49;;;;;;;4.10;3.60;;;20.90;99.90;;;;;;7306283;32;20828;-56
2023/09/08 08:35:52;;;;;;;7.03;3.60;;;21.20;99.90;;;;;;7305660;32;20538;-56
2023/09/08 08:39:53;;;;;;;5.50;3.65;;;21.60;99.90;;;;;;7310115;32;20173;-57
2023/09/08 08:43:56;;;;;;;5.10;3.28;;;22.50;99.90;;;;;;7304754;32;20268;-57
2023/09/08 08:47:58;;;;;;;4.60;2.97;;;23.30;99.90;;;;;;7311137;32;20124;-56
2023/09/08 08:52:06;;;;;;;8.20;3.37;;;24.30;99.90;;;;;;7299805;32;20648;-56
2023/09/08 08:56:09;;;;;;;5.55;3.33;;;25.00;99.90;;;;;;7298475;32;20199;-57
2023/09/08 09:00:12;;;;;;;4.22;2.97;;;24.70;99.90;;;;;;7294116;32;20940;-56
2023/09/08 09:04:15;;;;;;;4.90;3.30;;;24.60;99.90;;;;;;7301427;32;20092;-57
2023/09/08 09:08:18;;;;;;;5.43;3.35;;;24.40;99.90;;;;;;7301309;32;20521;-57
2023/09/08 09:12:21;;;;;;;3.72;3.20;;;24.40;99.90;;;;;;7298511;32;20111;-57
2023/09/08 09:16:23;;;;;;;7.85;2.83;;;25.00;99.90;;;;;;7301373;32;20118;-56
2023/09/08 09:20:25;;;;;;;4.15;3.12;;;25.80;99.90;;;;;;7303341;32;20130;-56
2023/09/08 09:24:38;;;;;;;4.82;3.15;;;26.30;99.90;;;;;;7304222;32;20324;-57
2023/09/08 09:28:48;;;;;;;5.53;3.08;;;26.60;99.90;;;;;;7297388;32;20122;-56
2023/09/08 09:33:04;;;;;;;8.15;3.47;;;26.70;99.90;;;;;;7297966;32;20362;-54
2023/09/08 09:37:06;;;;;;;3.87;3.20;;;27.00;99.90;;;;;;7295171;32;20230;-57
2023/09/08 09:41:08;;;;;;;5.65;3.30;;;28.20;99.90;;;;;;7299640;32;20519;-57
2023/09/08 09:45:10;;;;;;;4.80;3.00;;;29.50;99.90;;;;;;7300058;32;20504;-56
2023/09/08 09:49:17;;;;;;;4.03;3.40;;;30.50;99.90;;;;;;7291703;32;20214;-57
2023/09/08 09:53:20;;;;;;;4.97;2.72;;;31.30;99.90;;;;;;7297997;32;20100;-58
2023/09/08 09:57:23;;;;;;;3.97;2.55;;;32.00;99.90;;;;;;7300479;32;20096;-57
2023/09/08 10:01:25;;;;;;;5.47;3.37;;;33.10;98.20;;;;;;7288867;32;20226;-57
2023/09/08 10:05:27;;;;;;;4.62;2.85;;;34.10;95.10;;;;;;7300696;32;20125;-58
2023/09/08 10:09:29;;;;;;;5.93;2.92;;;35.10;87.60;;;;;;7294391;32;20214;-58
2023/09/08 10:13:45;;;;;;;5.47;2.90;;;35.30;87.40;;;;;;7302535;32;20575;-57
2023/09/08 10:17:56;;;;;;;5.65;3.08;;;35.60;83.00;;;;;;7300467;32;20115;-58
2023/09/08 10:22:00;;;;;;;5.97;3.25;;;35.40;85.20;;;;;;7296281;32;20104;-57
2023/09/08 10:26:05;;;;;;;4.85;2.70;;;35.30;78.10;;;;;;7304922;32;20198;-58
2023/09/08 10:30:08;;;;;;;5.73;2.80;;;34.90;86.60;;;;;;7299772;32;20104;-58
2023/09/08 10:34:10;;;;;;;4.10;3.17;;;34.60;91.80;;;;;;7302213;32;20213;-57
2023/09/08 10:38:25;;;;;;;6.03;2.95;;;34.90;83.10;;;;;;7283599;32;20108;-57
2023/09/08 10:42:28;;;;;;;4.53;3.03;;;34.80;81.00;;;;;;7307561;32;20252;-57
2023/09/08 10:46:31;;;;;;;4.85;2.97;;;34.90;83.80;;;;;;7298615;32;20771;-57
2023/09/08 10:50:35;;;;;;;3.15;2.75;;;34.40;85.40;;;;;;7293542;32;20640;-57
2023/09/08 10:54:44;;;;;;;4.93;2.97;;;33.80;82.20;;;;;;7302477;32;20099;-57
2023/09/08 10:58:51;;;;;;;3.50;3.10;;;33.90;81.00;;;;;;7295784;32;20104;-58
2023/09/08 11:02:54;;;;;;;9.77;3.50;;;33.90;79.90;;;;;;7289401;32;20203;-57
2023/09/08 11:06:57;;;;;;;5.90;3.58;;;34.10;81.40;;;;;;7298753;32;20169;-58
2023/09/08 11:11:00;;;;;;;6.90;3.28;;;34.10;81.70;;;;;;7298355;32;20230;-56
2023/09/08 11:15:05;;;;;;;5.72;3.53;;;33.60;83.80;;;;;;7299773;32;20138;-57
2023/09/08 11:19:09;;;;;;;5.78;3.28;;;33.50;86.20;;;;;;7286478;32;20532;-57
2023/09/08 11:23:11;;;;;;;4.10;3.42;;;33.40;84.90;;;;;;7299467;32;20573;-57
2023/09/08 11:27:13;;;;;;;4.28;2.90;;;33.10;81.90;;;;;;7304652;32;20461;-58
2023/09/08 11:31:16;;;;;;;4.50;3.10;;;32.30;87.80;;;;;;7299127;32;20540;-58
2023/09/08 11:35:20;;;;;;;3.97;3.10;;;31.90;86.90;;;;;;7300756;32;20123;-56
2023/09/08 11:39:25;;;;;;;6.12;3.20;;;31.40;90.40;;;;;;7304896;32;20191;-59
2023/09/08 11:43:27;;;;;;;5.60;3.47;;;31.10;88.70;;;;;;7298804;32;20265;-57
2023/09/08 11:47:30;;;;;;;4.25;3.37;;;30.70;90.80;;;;;;7304564;32;20114;-57
2023/09/08 11:51:31;;;;;;;6.03;3.15;;;30.80;90.00;;;;;;7297387;32;20781;-57
2023/09/08 11:55:35;;;;;;;6.50;3.05;;;30.90;91.40;;;;;;7300587;32;20226;-58
2023/09/08 11:59:38;;;;;;;4.25;3.22;;;31.00;91.90;;;;;;7303205;32;20175;-58
2023/09/08 12:03:53;;;;;;;6.85;3.37;;;31.10;92.70;;;;;;7298782;32;20241;-57
2023/09/08 12:07:58;;;;;;;4.00;3.30;;;31.20;91.10;;;;;;7307012;32;20163;-57
2023/09/08 12:12:02;;;;;;;4.60;3.30;;;31.00;89.60;;;;;;7300795;32;20584;-57
2023/09/08 12:16:22;;;;;;;5.93;3.55;;;30.80;91.50;;;;;;7277177;32;20588;-57
2023/09/08 12:20:24;;;;;;;4.78;3.40;;;30.50;92.10;;;;;;7304284;32;20580;-58
2023/09/08 12:24:51;;;;;;;5.05;3.50;;;30.30;92.40;;;;;;7298862;32;20114;-57
2023/09/08 12:28:53;;;;;;;5.03;3.25;;;30.20;93.60;;;;;;7302211;32;20114;-58
2023/09/08 12:32:58;;;;;;;7.25;3.62;;;30.00;92.50;;;;;;7299091;32;20130;-57
2023/09/08 12:36:59;;;;;;;6.22;3.67;;;29.90;94.50;;;;;;7301454;32;20187;-58
2023/09/08 12:41:01;;;;;;;4.65;3.58;;;29.90;92.60;;;;;;7302687;32;20122;-58
2023/09/08 12:45:03;;;;;;;7.12;3.55;;;29.70;93.80;;;;;;7299988;32;20192;-58
2023/09/08 12:49:05;;;;;;;4.57;3.60;;;29.70;93.50;;;;;;7302445;32;20364;-57
2023/09/08 12:53:09;;;;;;;5.62;3.25;;;29.70;92.80;;;;;;7298539;32;20692;-58
2023/09/08 12:57:10;;;;;;;9.73;3.70;;;29.90;92.90;;;;;;7301455;32;20126;-57
2023/09/08 13:01:12;;;;;;;6.35;3.33;;;30.00;91.20;;;;;;7301113;32;20538;-58
2023/09/08 13:05:14;;;;;;;4.93;3.20;;;30.00;92.50;;;;;;7298738;32;20111;-57
2023/09/08 13:09:16;;;;;;;3.55;3.25;;;30.00;92.80;;;;;;7292548;32;20112;-56
2023/09/08 13:13:18;;;;;;;5.37;3.25;;;30.00;92.10;;;;;;7298462;32;20107;-59
2023/09/08 13:17:20;;;;;;;4.05;3.47;;;30.00;92.60;;;;;;7301979;32;20895;-58
2023/09/08 13:21:22;;;;;;;4.25;3.42;;;30.00;92.80;;;;;;7300194;32;20589;-58
2023/09/08 13:25:24;;;;;;;6.47;3.20;;;29.90;92.90;;;;;;7306316;32;20122;-57
2023/09/08 13:29:27;;;;;;;9.35;3.60;;;29.90;92.50;;;;;;7301870;32;20100;-58
2023/09/08 13:33:28;;;;;;;6.07;3.60;;;29.80;93.20;;;;;;7300498;32;20106;-59
2023/09/08 13:37:34;;;;;;;5.60;3.12;;;29.80;94.10;;;;;;7303376;32;20223;-58
2023/09/08 13:41:45;;;;;;;5.50;3.35;;;29.70;96.10;;;;;;7300121;32;20100;-58
2023/09/08 13:45:47;;;;;;;7.10;3.72;;;29.90;93.70;;;;;;7296679;32;20107;-57
2023/09/08 13:49:49;;;;;;;7.43;3.40;;;29.90;94.70;;;;;;7304346;32;20285;-58
2023/09/08 13:53:51;;;;;;;6.30;3.42;;;29.90;90.60;;;;;;7289259;32;20120;-58
2023/09/08 13:57:54;;;;;;;5.50;3.40;;;29.90;91.90;;;;;;7296979;32;20105;-58
2023/09/08 14:01:57;;;;;;;5.35;3.30;;;29.80;93.00;;;;;;7303317;32;20208;-58
2023/09/08 14:06:19;;;;;;;4.78;3.28;;;29.70;92.90;;;;;;7304463;32;20178;-58
2023/09/08 14:10:30;;;;;;;6.50;3.50;;;30.00;91.50;;;;;;7290991;32;20194;-58
2023/09/08 14:14:42;;;;;;;5.37;3.30;;;30.10;92.50;;;;;;7304217;32;20239;-57
2023/09/08 14:18:44;;;;;;;5.25;3.40;;;30.30;92.30;;;;;;7301073;32;20815;-57
2023/09/08 14:22:46;;;;;;;6.50;3.30;;;30.30;92.50;;;;;;7299439;32;20295;-59
2023/09/08 14:26:48;;;;;;;5.35;3.50;;;30.30;93.60;;;;;;7300346;32;20872;-58
2023/09/08 14:30:50;;;;;;;7.90;3.65;;;30.30;93.30;;;;;;7296698;32;20489;-57
2023/09/08 14:34:53;;;;;;;5.47;3.55;;;30.30;92.20;;;;;;7294807;32;20123;-58
2023/09/08 14:38:55;;;;;;;5.53;3.40;;;30.30;94.70;;;;;;7301899;32;20231;-59
2023/09/08 14:42:57;;;;;;;6.53;3.42;;;30.30;90.80;;;;;;7296581;32;20775;-57
2023/09/08 14:46:59;;;;;;;5.85;3.20;;;30.10;92.30;;;;;;7302547;32;20100;-57
2023/09/08 14:51:01;;;;;;;4.97;3.50;;;29.90;93.70;;;;;;7295109;32;20371;-57
2023/09/08 14:55:03;;;;;;;5.55;3.87;;;29.70;95.20;;;;;;7295925;32;20295;-58
2023/09/08 14:59:04;;;;;;;8.77;3.80;;;29.50;91.00;;;;;;7295341;32;20132;-57
2023/09/08 15:03:08;;;;;;;5.55;3.33;;;29.50;93.30;;;;;;7292380;32;20901;-58
2023/09/08 15:07:10;;;;;;;6.43;3.78;;;29.40;95.60;;;;;;7298510;32;20257;-58
2023/09/08 15:11:11;;;;;;;5.60;3.62;;;29.10;95.10;;;;;;7299883;32;20242;-56
2023/09/08 15:15:13;;;;;;;6.05;3.67;;;28.90;95.70;;;;;;7296379;32;20126;-58
2023/09/08 15:19:15;;;;;;;5.97;3.42;;;28.80;95.80;;;;;;7299172;32;20088;-57
2023/09/08 15:23:17;;;;;;;6.47;3.67;;;28.60;97.20;;;;;;7296652;32;20112;-57
2023/09/08 15:27:19;;;;;;;14.65;5.57;;;28.60;95.90;;;;;;7293045;32;20178;-57
2023/09/08 15:31:21;;;;;;;6.03;3.95;;;28.60;97.50;;;;;;7296873;32;20152;-57
2023/09/08 15:35:23;;;;;;;7.75;3.75;;;28.50;97.10;;;;;;7297116;32;20128;-57
2023/09/08 15:39:25;;;;;;;8.65;3.97;;;28.50;98.30;;;;;;7301214;32;20223;-57
2023/09/08 15:43:26;;;;;;;6.12;3.95;;;28.50;98.20;;;;;;7299221;32;20285;-57
2023/09/08 15:47:28;;;;;;;5.00;4.05;;;28.60;99.20;;;;;;7284867;32;20226;-57
2023/09/08 15:51:30;;;;;;;11.57;7.20;;;28.40;94.50;;;;;;7303595;32;20511;-57
2023/09/08 15:55:32;;;;;;;4.55;4.00;;;28.20;96.40;;;;;;7305105;32;20117;-57
2023/09/08 15:59:34;;;;;;;5.97;3.78;;;28.10;98.40;;;;;;7294992;32;20183;-57
2023/09/08 16:03:36;;;;;;;6.62;3.40;;;28.10;96.60;;;;;;7294470;32;20252;-56
2023/09/08 16:07:39;;;;;;;5.87;3.78;;;28.10;97.70;;;;;;7294158;32;20501;-57
2023/09/08 16:11:40;;;;;;;6.37;3.92;;;28.00;99.90;;;;;;7283553;32;20115;-57
2023/09/08 16:15:43;;;;;;;8.85;4.68;;;28.00;99.90;;;;;;7303880;32;20119;-58
2023/09/08 16:19:45;;;;;;;8.07;3.70;;;28.00;99.90;;;;;;7302464;32;20197;-57
2023/09/08 16:23:46;;;;;;;6.50;3.97;;;28.00;99.90;;;;;;7300264;32;20113;-56
2023/09/08 16:27:48;;;;;;;5.35;3.95;;;28.00;99.90;;;;;;7303877;32;20255;-56
2023/09/08 16:31:50;;;;;;;4.97;3.40;;;27.90;99.90;;;;;;7294691;32;20926;-56
2023/09/08 16:35:54;;;;;;;6.80;3.70;;;27.90;99.90;;;;;;7303550;32;20138;-56
2023/09/08 16:39:55;;;;;;;7.70;4.45;;;27.70;99.90;;;;;;7298708;32;20104;-56
2023/09/08 16:43:57;;;;;;;7.45;3.50;;;27.60;99.90;;;;;;7292081;32;20396;-56
2023/09/08 16:47:59;;;;;;;6.50;3.90;;;27.40;99.90;;;;;;7294835;32;20783;-56
2023/09/08 16:52:01;;;;;;;5.18;3.90;;;27.10;99.90;;;;;;7295663;32;20286;-55
2023/09/08 16:56:08;;;;;;;5.97;4.03;;;26.80;99.90;;;;;;7294692;32;20120;-56
2023/09/08 17:00:10;;;;;;;6.62;4.37;;;26.50;99.90;;;;;;7279670;32;20210;-55
2023/09/08 17:04:12;;;;;;;6.55;4.05;;;26.40;99.90;;;;;;7298326;32;20119;-55
2023/09/08 17:08:14;;;;;;;5.03;4.45;;;26.20;99.90;;;;;;7298882;32;20104;-55
2023/09/08 17:12:16;;;;;;;8.45;4.72;;;26.00;99.90;;;;;;7305972;32;20119;-55
2023/09/08 17:16:21;;;;;;;5.18;4.30;;;25.70;99.90;;;;;;7312540;32;20254;-55
2023/09/08 17:20:25;;;;;;;10.23;4.90;;;25.50;99.90;;;;;;7306868;32;20520;-55
2023/09/08 17:24:27;;;;;;;7.10;4.78;;;25.20;99.90;;;;;;7303775;32;20702;-55
2023/09/08 17:33:39;;;;;;;7.03;4.60;;;24.70;99.90;;;;;;7296747;32;20096;-55
2023/09/08 17:37:42;;;;;;;8.82;4.93;;;24.50;99.90;;;;;;7291569;32;20482;-55
2023/09/08 17:41:43;;;;;;;11.02;5.30;;;24.20;99.90;;;;;;7303566;32;20100;-55
2023/09/08 17:45:45;;;;;;;10.43;5.53;;;23.90;99.90;;;;;;7295749;32;20108;-54
2023/09/08 17:49:47;;;;;;;6.53;5.70;;;23.70;99.90;;;;;;7307745;32;20568;-55
2023/09/08 17:53:49;;;;;;;8.55;5.50;;;23.40;99.90;;;;;;7309604;32;20108;-54
2023/09/08 17:57:51;;;;;;;9.70;5.30;;;23.20;99.90;;;;;;7305788;32;20201;-54
2023/09/08 18:01:53;;;;;;;10.32;6.10;;;23.00;99.90;;;;;;7301396;32;20111;-54
2023/09/08 18:05:54;;;;;;;8.48;5.40;;;22.80;99.90;;;;;;7292047;32;20121;-55
2023/09/08 18:09:56;;;;;;;9.48;6.20;;;22.40;99.90;;;;;;7290859;32;20358;-54
2023/09/08 18:13:58;;;;;;;12.95;6.18;;;22.20;99.90;;;;;;7295727;32;20149;-55
2023/09/08 18:18:00;;;;;;;11.75;6.12;;;22.00;99.90;;;;;;7305856;32;20135;-53
2023/09/08 18:22:03;;;;;;;12.07;5.55;;;21.80;99.90;;;;;;7305905;32;20145;-53
2023/09/08 18:26:05;;;;;;;9.02;6.82;;;21.70;99.90;;;;;;7299915;32;20236;-54
2023/09/08 18:30:07;;;;;;;12.85;6.75;;;21.50;99.90;;;;;;7297971;32;20250;-55
2023/09/08 18:34:09;;;;;;;11.52;6.45;;;21.30;99.90;;;;;;7296584;32;20115;-55
2023/09/08 18:38:11;;;;;;;8.43;6.40;;;21.20;99.90;;;;;;7296878;32;20623;-55
2023/09/08 18:42:13;;;;;;;9.82;6.15;;;21.00;99.90;;;;;;7293055;32;20270;-54
2023/09/08 18:46:15;;;;;;;11.73;6.47;;;20.90;99.90;;;;;;7299437;32;20147;-55
2023/09/08 18:50:17;;;;;;;10.10;6.28;;;20.70;99.90;;;;;;7286006;32;20123;-54
2023/09/08 18:54:19;;;;;;;13.18;6.70;;;20.60;99.90;;;;;;7297516;32;20190;-55
2023/09/08 18:58:22;;;;;;;9.45;6.97;;;20.50;99.90;;;;;;7285683;32;20643;-55
2023/09/08 19:02:24;;;;;;;12.23;7.35;;;20.40;99.90;;;;;;7300459;32;20119;-55
2023/09/08 19:06:26;;;;;;;14.15;7.10;;;20.30;99.90;;;;;;7300164;32;20799;-54
2023/09/08 19:10:28;;;;;;;9.40;7.47;;;20.20;99.90;;;;;;7287133;32;20632;-55
2023/09/08 19:14:30;;;;;;;12.40;6.95;;;20.00;99.90;;;;;;7288876;32;20149;-54
2023/09/08 19:18:31;;;;;;;10.57;7.05;;;19.90;99.90;;;;;;7301701;32;20187;-54
2023/09/08 19:22:33;;;;;;;12.48;7.05;;;19.80;99.90;;;;;;7298921;32;20192;-54
2023/09/08 19:26:35;;;;;;;11.27;7.22;;;19.70;99.90;;;;;;7304110;32;20165;-53
2023/09/08 19:30:37;;;;;;;11.70;7.68;;;19.60;99.90;;;;;;7303376;32;20257;-55
2023/09/08 19:34:39;;;;;;;10.80;6.93;;;19.50;99.90;;;;;;7310124;32;20131;-55
2023/09/08 19:38:41;;;;;;;11.40;7.32;;;19.50;99.90;;;;;;7303148;32;20531;-54
2023/09/08 19:42:43;;;;;;;15.05;7.05;;;19.40;99.90;;;;;;7303078;32;20115;-55
2023/09/08 19:46:44;;;;;;;10.23;7.53;;;19.30;99.90;;;;;;7299943;32;20225;-54
2023/09/08 19:50:46;;;;;;;10.68;7.07;;;19.20;99.90;;;;;;7307370;32;20561;-54
2023/09/08 19:54:48;;;;;;;12.65;7.85;;;19.20;99.90;;;;;;7301284;32;20427;-55
2023/09/08 19:58:50;;;;;;;11.60;7.07;;;19.10;99.90;;;;;;7304922;32;20122;-54
2023/09/08 20:02:53;;;;;;;12.25;7.00;;;19.00;99.90;;;;;;7300552;32;20888;-54
2023/09/08 20:06:57;;;;;;;12.25;6.75;;;19.00;99.90;;;;;;7300505;32;20518;-54
2023/09/08 20:10:58;;;;;;;11.63;7.28;;;18.90;99.90;;;;;;7300991;32;20119;-55
2023/09/08 20:15:00;;;;;;;9.45;7.18;;;18.80;99.90;;;;;;7287837;32;20088;-55
2023/09/08 20:19:02;;;;;;;10.88;7.50;;;18.80;99.90;;;;;;7292586;32;20123;-55
2023/09/08 20:23:05;;;;;;;11.77;7.57;;;18.70;99.90;;;;;;7301499;32;20108;-55
2023/09/08 20:27:10;;;;;;;16.27;7.40;;;18.60;99.90;;;;;;7300459;32;20122;-55
2023/09/08 20:31:12;;;;;;;14.07;7.40;;;18.60;99.90;;;;;;7287446;32;20689;-55
2023/09/08 20:35:18;;;;;;;14.23;7.25;;;18.50;99.90;;;;;;7290184;32;20096;-55
2023/09/08 20:39:20;;;;;;;10.60;6.97;;;18.40;99.90;;;;;;7287089;32;20719;-55
2023/09/08 20:43:22;;;;;;;10.85;7.25;;;18.40;99.90;;;;;;7298701;32;20097;-55
2023/09/08 20:47:32;;;;;;;12.48;7.35;;;18.30;99.90;;;;;;7299668;32;20111;-56
2023/09/08 20:51:34;;;;;;;11.05;7.03;;;18.30;99.90;;;;;;7286544;32;20097;-55
2023/09/08 20:55:36;;;;;;;9.85;7.37;;;18.20;99.90;;;;;;7298384;32;20191;-54
2023/09/08 20:59:38;;;;;;;13.88;6.72;;;18.20;99.90;;;;;;7298447;32;20107;-54
2023/09/08 21:03:40;;;;;;;8.23;7.18;;;18.10;99.90;;;;;;7304143;32;20183;-55
2023/09/08 21:07:42;;;;;;;12.88;7.47;;;18.10;99.90;;;;;;7299900;32;20258;-55